Time;durP1;ratioP1;P1;durP2;ratioP2;P2;SDS_P1;SDS_P2;PMS_P1;PMS_P2;Temp;Humidity;BMP_temperature;BMP_pressure;BME280_temperature;BME280_humidity;BME280_pressure;Samples;Min_cycle;Max_cycle;Signal;HPM_P1;HPM_P2
2022/12/22 03:27:08;;;;;;;0.10;0.10;;;9.30;99.90;;;;;;5059014;28;20235;-80
2022/12/22 03:29:33;;;;;;;0.07;0.07;;;9.30;99.90;;;;;;5058486;28;20513;-80
2022/12/22 03:31:59;;;;;;;0.10;0.10;;;9.20;99.90;;;;;;5058471;28;20184;-80
2022/12/22 03:34:24;;;;;;;0.10;0.10;;;9.30;99.90;;;;;;5073611;28;20212;-79
2022/12/22 03:36:50;;;;;;;0.10;0.10;;;9.30;99.90;;;;;;5070774;28;20215;-80
2022/12/22 03:39:15;;;;;;;0.10;0.10;;;9.30;99.90;;;;;;5072635;28;20307;-80
2022/12/22 03:47:09;;;;;;;0.10;0.10;;;9.10;99.90;;;;;;5056274;28;20223;-80
2022/12/22 03:49:34;;;;;;;0.10;0.10;;;9.10;99.90;;;;;;5071710;28;20193;-80
2022/12/22 03:52:00;;;;;;;0.10;0.10;;;9.20;99.90;;;;;;5055525;28;20184;-79
2022/12/22 03:54:26;;;;;;;0.10;0.10;;;9.10;99.90;;;;;;5073035;28;20283;-80
2022/12/22 03:56:52;;;;;;;0.10;0.10;;;9.20;99.90;;;;;;5058416;28;20200;-80
2022/12/22 03:59:18;;;;;;;0.10;0.10;;;9.10;99.90;;;;;;5071695;28;20203;-80
2022/12/22 04:01:53;;;;;;;0.10;0.10;;;9.20;99.90;;;;;;5057540;28;20198;-79
2022/12/22 04:04:20;;;;;;;0.10;0.10;;;9.20;99.90;;;;;;5055330;28;20188;-79
2022/12/22 04:06:46;;;;;;;0.10;0.10;;;9.30;99.90;;;;;;5058485;28;20196;-80
2022/12/22 04:09:12;;;;;;;0.10;0.10;;;9.50;99.90;;;;;;5058004;28;20794;-80
2022/12/22 04:14:23;;;;;;;0.10;0.10;;;9.70;99.90;;;;;;5059543;28;20306;-80
2022/12/22 04:16:48;;;;;;;0.10;0.10;;;9.70;99.90;;;;;;5072963;28;20284;-80
2022/12/22 04:19:14;;;;;;;0.10;0.10;;;9.70;99.90;;;;;;5057522;28;20284;-80
2022/12/22 04:21:41;;;;;;;0.10;0.10;;;9.80;99.90;;;;;;5073056;28;20185;-80
2022/12/22 04:24:06;;;;;;;0.10;0.10;;;9.90;99.90;;;;;;5055613;28;20242;-79
2022/12/22 04:26:32;;;;;;;0.10;0.10;;;9.90;99.90;;;;;;5054979;28;20180;-80
2022/12/22 04:28:57;;;;;;;0.10;0.10;;;9.90;99.90;;;;;;5055797;28;20211;-79
2022/12/22 04:31:23;;;;;;;0.10;0.10;;;9.80;99.90;;;;;;5073172;28;20193;-80
2022/12/22 04:33:49;;;;;;;0.10;0.10;;;9.80;99.90;;;;;;5072348;28;20262;-80
2022/12/22 04:36:14;;;;;;;0.10;0.10;;;9.90;99.90;;;;;;5055582;28;20179;-80
2022/12/22 04:38:40;;;;;;;0.10;0.10;;;10.00;99.90;;;;;;5072383;28;20275;-79
2022/12/22 04:41:07;;;;;;;0.10;0.10;;;10.10;99.90;;;;;;5058528;28;20193;-80
2022/12/22 04:43:33;;;;;;;0.10;0.10;;;10.20;99.90;;;;;;5058488;28;20574;-79
2022/12/22 04:45:58;;;;;;;0.10;0.10;;;10.20;99.90;;;;;;5057681;28;20287;-80
2022/12/22 04:48:25;;;;;;;0.10;0.10;;;10.30;99.90;;;;;;5056331;28;20209;-80
2022/12/22 04:50:52;;;;;;;0.00;0.00;;;10.30;99.90;;;;;;5054654;28;20233;-79
2022/12/22 04:53:18;;;;;;;0.10;0.10;;;10.40;99.90;;;;;;5058739;28;20196;-80
2022/12/22 04:55:49;;;;;;;0.10;0.10;;;10.50;99.90;;;;;;5072540;28;20917;-80
2022/12/22 04:58:15;;;;;;;0.10;0.10;;;10.40;99.90;;;;;;5056289;28;20243;-80
2022/12/22 05:00:41;;;;;;;0.10;0.10;;;10.50;99.90;;;;;;5072794;28;20207;-80
2022/12/22 05:03:07;;;;;;;0.10;0.10;;;10.50;99.90;;;;;;5055605;28;20192;-80
2022/12/22 05:05:34;;;;;;;0.10;0.10;;;10.50;99.90;;;;;;5055105;28;20662;-79
2022/12/22 05:08:00;;;;;;;0.10;0.10;;;10.60;99.90;;;;;;5070958;28;20209;-80
2022/12/22 05:10:25;;;;;;;0.10;0.10;;;10.60;99.90;;;;;;5071505;28;20204;-79
2022/12/22 05:12:53;;;;;;;0.10;0.10;;;10.70;99.90;;;;;;5072057;28;20219;-79
2022/12/22 05:15:27;;;;;;;0.10;0.10;;;10.60;99.90;;;;;;5057700;28;20181;-80
2022/12/22 05:17:53;;;;;;;0.10;0.10;;;10.60;99.90;;;;;;5069660;28;20915;-79
2022/12/22 05:20:19;;;;;;;0.10;0.10;;;10.50;99.90;;;;;;5072364;28;20299;-80
2022/12/22 05:22:45;;;;;;;0.10;0.10;;;10.40;99.90;;;;;;5055941;28;20280;-80
2022/12/22 05:25:10;;;;;;;0.10;0.10;;;10.50;99.90;;;;;;5058655;28;20239;-80
2022/12/22 05:27:36;;;;;;;0.10;0.10;;;10.60;99.90;;;;;;5071002;28;20201;-80
2022/12/22 05:30:03;;;;;;;0.10;0.10;;;10.70;99.90;;;;;;5070461;28;20194;-80
2022/12/22 05:32:32;;;;;;;0.10;0.10;;;10.50;99.90;;;;;;5071980;28;20181;-80
2022/12/22 05:34:57;;;;;;;0.10;0.10;;;10.10;99.90;;;;;;5055296;28;20178;-80
2022/12/22 05:37:23;;;;;;;0.10;0.10;;;9.90;99.90;;;;;;5072369;28;20722;-80
2022/12/22 05:39:49;;;;;;;0.10;0.10;;;9.90;99.90;;;;;;5070217;28;20217;-80
2022/12/22 05:42:34;;;;;;;0.10;0.10;;;9.90;99.90;;;;;;5054927;28;20525;-79
2022/12/22 05:45:20;;;;;;;0.10;0.10;;;9.90;99.90;;;;;;5072102;28;20246;-80
2022/12/22 05:47:48;;;;;;;0.10;0.10;;;10.00;99.90;;;;;;5056354;28;20213;-79
2022/12/22 05:50:15;;;;;;;0.10;0.10;;;10.00;99.90;;;;;;5055932;28;20836;-80
2022/12/22 05:52:41;;;;;;;0.10;0.10;;;10.10;99.90;;;;;;5055253;28;20243;-80
2022/12/22 05:55:08;;;;;;;0.10;0.10;;;10.20;99.90;;;;;;5056052;28;20552;-80
2022/12/22 05:57:34;;;;;;;0.10;0.10;;;10.30;99.90;;;;;;5056004;28;20237;-80
2022/12/22 05:59:59;;;;;;;0.10;0.10;;;10.30;99.90;;;;;;5058483;28;20807;-79
2022/12/22 06:02:25;;;;;;;0.10;0.10;;;10.40;99.90;;;;;;5057877;28;20192;-79
2022/12/22 06:04:50;;;;;;;0.10;0.10;;;10.50;99.90;;;;;;5057717;28;20219;-79
2022/12/22 06:07:16;;;;;;;0.10;0.10;;;10.50;99.90;;;;;;5072227;28;20216;-78
2022/12/22 06:09:42;;;;;;;0.10;0.10;;;10.60;99.90;;;;;;5058986;28;20240;-79
2022/12/22 06:12:07;;;;;;;0.10;0.10;;;10.70;99.90;;;;;;5057553;28;20213;-79
2022/12/22 06:14:33;;;;;;;0.10;0.10;;;10.70;99.90;;;;;;5057190;28;20181;-80
2022/12/22 06:16:59;;;;;;;0.10;0.10;;;10.70;99.90;;;;;;5056278;28;20255;-80
2022/12/22 06:19:24;;;;;;;0.10;0.10;;;10.80;99.90;;;;;;5072135;28;20288;-80
2022/12/22 06:21:50;;;;;;;0.10;0.10;;;10.80;99.90;;;;;;5065472;28;20189;-80
2022/12/22 06:24:15;;;;;;;0.10;0.10;;;10.90;99.90;;;;;;5056639;28;20271;-80
2022/12/22 06:26:41;;;;;;;0.10;0.10;;;10.90;99.90;;;;;;5072347;28;20708;-80
2022/12/22 06:29:06;;;;;;;0.10;0.10;;;10.90;99.90;;;;;;5055029;28;20210;-80
2022/12/22 06:31:32;;;;;;;0.10;0.10;;;11.00;99.90;;;;;;5053392;28;20185;-79
2022/12/22 06:33:57;;;;;;;0.10;0.10;;;11.00;99.90;;;;;;5071575;28;20202;-79
2022/12/22 06:36:24;;;;;;;0.10;0.10;;;11.00;99.90;;;;;;5055775;28;20181;-79
2022/12/22 06:38:50;;;;;;;0.10;0.10;;;11.00;99.90;;;;;;5071620;28;20189;-79
2022/12/22 06:43:07;;;;;;;0.00;0.00;;;11.00;99.90;;;;;;5069458;28;20186;-79
2022/12/22 06:44:01;;;;;;;0.10;0.10;;;11.10;99.90;;;;;;5054772;28;20254;-79
2022/12/22 06:46:26;;;;;;;0.10;0.10;;;11.00;99.90;;;;;;5071629;28;20182;-81
2022/12/22 06:48:52;;;;;;;0.10;0.10;;;11.00;99.90;;;;;;5072519;28;20244;-81
2022/12/22 06:51:17;;;;;;;0.10;0.10;;;11.00;99.90;;;;;;5074753;28;20256;-87
2022/12/22 06:53:43;;;;;;;0.10;0.10;;;11.00;99.90;;;;;;5071066;28;20185;-80
2022/12/22 06:56:08;;;;;;;0.10;0.10;;;11.00;99.90;;;;;;5070884;28;20197;-80
2022/12/22 06:58:34;;;;;;;0.10;0.10;;;11.00;99.90;;;;;;5073591;28;20205;-79
2022/12/22 07:00:59;;;;;;;0.00;0.00;;;11.00;99.90;;;;;;5057848;28;20216;-79
2022/12/22 07:03:25;;;;;;;0.10;0.10;;;11.00;99.90;;;;;;5071912;28;20182;-80
2022/12/22 07:05:51;;;;;;;0.10;0.10;;;11.00;99.90;;;;;;5057885;28;20217;-80
2022/12/22 07:08:16;;;;;;;0.10;0.10;;;11.10;99.90;;;;;;5059545;28;20232;-80
2022/12/22 07:10:57;;;;;;;0.10;0.10;;;11.10;99.90;;;;;;5073496;28;20244;-78
2022/12/22 07:13:30;;;;;;;0.10;0.10;;;11.10;99.90;;;;;;5060009;28;20272;-79
2022/12/22 07:15:56;;;;;;;0.10;0.10;;;11.10;99.90;;;;;;5058612;28;20185;-80
2022/12/22 07:18:22;;;;;;;0.10;0.10;;;11.10;99.90;;;;;;5074112;28;20272;-80
2022/12/22 07:20:47;;;;;;;0.10;0.10;;;11.10;99.90;;;;;;5075858;28;20209;-80
2022/12/22 07:23:13;;;;;;;0.10;0.10;;;11.10;99.90;;;;;;5075835;28;20189;-80
2022/12/22 07:25:38;;;;;;;0.10;0.10;;;11.10;99.90;;;;;;5056737;28;20193;-80
2022/12/22 07:28:06;;;;;;;0.03;0.03;;;11.10;99.90;;;;;;5054424;28;20211;-81
2022/12/22 07:30:31;;;;;;;0.10;0.10;;;11.10;99.90;;;;;;5056668;28;20254;-80
2022/12/22 07:32:57;;;;;;;0.03;0.03;;;11.10;99.90;;;;;;5075041;28;20185;-80
2022/12/22 07:35:23;;;;;;;0.00;0.00;;;11.20;99.90;;;;;;5072401;28;20232;-81
2022/12/22 07:37:48;;;;;;;0.10;0.10;;;11.10;99.90;;;;;;5075495;28;20200;-81
2022/12/22 07:40:15;;;;;;;0.10;0.10;;;11.20;99.90;;;;;;5058522;28;20209;-81
2022/12/22 07:42:43;;;;;;;0.10;0.10;;;11.20;99.90;;;;;;5071888;28;20208;-81
2022/12/22 07:45:16;;;;;;;0.10;0.10;;;11.20;99.90;;;;;;5073533;28;20185;-81
2022/12/22 07:47:43;;;;;;;0.10;0.10;;;11.20;99.90;;;;;;5055836;28;20212;-80
2022/12/22 07:50:31;;;;;;;0.10;0.10;;;11.30;99.90;;;;;;5073761;28;20828;-81
2022/12/22 07:52:59;;;;;;;0.10;0.10;;;11.30;99.90;;;;;;5058541;28;20301;-80
2022/12/22 07:55:27;;;;;;;0.10;0.10;;;11.20;99.90;;;;;;5072137;28;20204;-80
2022/12/22 07:57:53;;;;;;;0.10;0.10;;;11.20;99.90;;;;;;5074767;28;20204;-80
2022/12/22 08:00:19;;;;;;;0.10;0.10;;;11.30;99.90;;;;;;5059051;28;20299;-81
2022/12/22 08:02:53;;;;;;;0.10;0.10;;;11.20;99.90;;;;;;5058813;28;20192;-80
2022/12/22 08:05:20;;;;;;;0.10;0.10;;;11.30;99.90;;;;;;5056942;28;20188;-81
2022/12/22 08:07:47;;;;;;;0.10;0.10;;;11.30;99.90;;;;;;5058045;28;20212;-81
2022/12/22 08:10:13;;;;;;;0.10;0.10;;;11.30;99.90;;;;;;5072628;28;20201;-80
2022/12/22 08:12:39;;;;;;;0.10;0.10;;;11.30;99.90;;;;;;5058483;28;20192;-80
2022/12/22 08:15:06;;;;;;;0.10;0.10;;;11.30;99.90;;;;;;5059378;28;20669;-80
2022/12/22 08:17:32;;;;;;;0.10;0.10;;;11.30;99.90;;;;;;5056890;28;20665;-81
2022/12/22 08:19:57;;;;;;;0.10;0.10;;;11.30;99.90;;;;;;5072014;28;20205;-81
2022/12/22 08:22:24;;;;;;;0.10;0.10;;;11.30;99.90;;;;;;5059318;28;20248;-81
2022/12/22 08:24:51;;;;;;;0.10;0.10;;;11.30;99.90;;;;;;5055195;28;20250;-80
2022/12/22 08:27:23;;;;;;;0.10;0.10;;;11.30;99.90;;;;;;5055433;28;20220;-81
2022/12/22 08:29:53;;;;;;;0.10;0.10;;;11.40;99.90;;;;;;5054463;28;20903;-80
2022/12/22 08:32:18;;;;;;;0.10;0.10;;;11.40;99.90;;;;;;5065329;28;20433;-80
2022/12/22 08:34:44;;;;;;;0.10;0.10;;;11.40;99.90;;;;;;5054641;28;20212;-81
2022/12/22 08:37:13;;;;;;;0.10;0.10;;;11.40;99.90;;;;;;5053413;28;20254;-82
2022/12/22 08:39:41;;;;;;;0.10;0.10;;;11.40;99.90;;;;;;5070795;28;20229;-82
2022/12/22 08:42:10;;;;;;;0.10;0.10;;;11.40;99.90;;;;;;5056352;28;20180;-81
2022/12/22 08:44:37;;;;;;;0.10;0.10;;;11.40;99.90;;;;;;5056514;28;20213;-80
2022/12/22 08:47:03;;;;;;;0.00;0.00;;;11.40;99.90;;;;;;5052582;28;20292;-81
2022/12/22 08:49:29;;;;;;;0.10;0.10;;;11.40;99.90;;;;;;5057236;28;20275;-81
2022/12/22 08:51:55;;;;;;;0.10;0.10;;;11.40;99.90;;;;;;5068813;28;20724;-82
2022/12/22 08:54:21;;;;;;;0.10;0.10;;;11.40;99.90;;;;;;5053689;28;20188;-81
2022/12/22 08:56:48;;;;;;;0.10;0.10;;;11.40;99.90;;;;;;5069844;28;20200;-81
2022/12/22 08:59:14;;;;;;;0.10;0.10;;;11.40;99.90;;;;;;5054173;28;20201;-81
2022/12/22 09:01:43;;;;;;;0.10;0.10;;;11.30;99.90;;;;;;5052455;28;20188;-81
2022/12/22 09:04:11;;;;;;;0.10;0.10;;;11.30;99.90;;;;;;5048054;28;20186;-80
2022/12/22 09:06:37;;;;;;;0.00;0.00;;;11.30;99.90;;;;;;5054071;28;20173;-81
2022/12/22 09:09:05;;;;;;;0.10;0.10;;;11.30;99.90;;;;;;5054734;28;20217;-81
2022/12/22 09:11:32;;;;;;;0.10;0.10;;;11.30;99.90;;;;;;5051812;28;20185;-82
2022/12/22 09:13:59;;;;;;;0.10;0.10;;;11.30;99.90;;;;;;5054217;28;20194;-81
2022/12/22 09:16:27;;;;;;;0.03;0.03;;;11.20;99.90;;;;;;5054535;28;20188;-80
2022/12/22 09:18:52;;;;;;;0.10;0.10;;;11.20;99.90;;;;;;5060219;28;20193;-81
2022/12/22 09:21:18;;;;;;;0.10;0.10;;;11.20;99.90;;;;;;5056226;28;20268;-80
2022/12/22 09:23:44;;;;;;;0.10;0.10;;;11.10;99.90;;;;;;5054529;28;20659;-80
2022/12/22 09:26:13;;;;;;;0.10;0.10;;;11.10;99.90;;;;;;5058353;28;20193;-80
2022/12/22 09:28:38;;;;;;;0.07;0.07;;;11.00;99.90;;;;;;5073690;28;20193;-80
2022/12/22 09:31:05;;;;;;;0.10;0.10;;;11.10;99.90;;;;;;5056222;28;20217;-81
2022/12/22 09:33:32;;;;;;;0.10;0.10;;;11.00;99.90;;;;;;5057533;28;20331;-80
2022/12/22 09:35:58;;;;;;;0.03;0.03;;;11.00;99.90;;;;;;5058475;28;20193;-80
2022/12/22 09:38:27;;;;;;;0.10;0.10;;;11.10;99.90;;;;;;5067450;28;20188;-80
2022/12/22 09:40:56;;;;;;;0.10;0.10;;;11.10;99.90;;;;;;5054348;28;20873;-80
2022/12/22 09:43:28;;;;;;;0.10;0.10;;;11.20;99.90;;;;;;5055948;28;20665;-79
2022/12/22 09:45:54;;;;;;;0.10;0.10;;;11.20;99.90;;;;;;5057126;28;20189;-80
2022/12/22 09:48:20;;;;;;;0.10;0.10;;;11.30;99.90;;;;;;5057417;28;20296;-80
2022/12/22 09:50:46;;;;;;;0.10;0.10;;;11.30;99.90;;;;;;5056071;28;20209;-80
2022/12/22 09:53:19;;;;;;;0.10;0.10;;;11.30;99.90;;;;;;5056325;28;20177;-80
2022/12/22 09:55:47;;;;;;;0.10;0.10;;;11.30;99.90;;;;;;5052933;28;20176;-80
2022/12/22 09:58:31;;;;;;;0.10;0.10;;;11.30;99.90;;;;;;5052193;28;20205;-80
2022/12/22 10:01:04;;;;;;;0.10;0.10;;;11.30;99.90;;;;;;5069156;28;20222;-80
2022/12/22 10:03:48;;;;;;;0.10;0.10;;;11.40;99.90;;;;;;5071020;28;20192;-82
2022/12/22 10:06:19;;;;;;;0.10;0.10;;;11.40;99.90;;;;;;5053713;28;20211;-80
2022/12/22 10:08:45;;;;;;;0.10;0.10;;;11.60;99.90;;;;;;5055780;28;20205;-80
2022/12/22 10:11:16;;;;;;;0.10;0.10;;;11.70;99.90;;;;;;5055769;28;20265;-80
2022/12/22 10:13:42;;;;;;;0.10;0.10;;;11.70;99.90;;;;;;5058347;28;20241;-80
2022/12/22 10:16:26;;;;;;;0.10;0.10;;;11.70;99.90;;;;;;5072622;28;20269;-80
2022/12/22 10:19:06;;;;;;;0.10;0.10;;;11.80;99.90;;;;;;5070442;28;20182;-80
2022/12/22 10:21:31;;;;;;;0.10;0.10;;;11.80;99.90;;;;;;5073063;28;20260;-81
2022/12/22 10:23:57;;;;;;;0.10;0.10;;;11.70;99.90;;;;;;5056699;28;20722;-80
2022/12/22 10:26:33;;;;;;;0.10;0.10;;;11.70;99.90;;;;;;5075023;28;20194;-79
2022/12/22 10:29:09;;;;;;;0.10;0.10;;;11.60;99.90;;;;;;5058033;28;20747;-80
2022/12/22 10:31:38;;;;;;;0.10;0.10;;;11.60;99.90;;;;;;5093902;28;20188;-80
2022/12/22 10:34:13;;;;;;;0.10;0.10;;;11.70;99.90;;;;;;5060060;28;20181;-80
2022/12/22 10:36:46;;;;;;;0.10;0.10;;;11.70;99.90;;;;;;5076826;28;20177;-80
2022/12/22 10:39:18;;;;;;;0.10;0.10;;;11.70;99.90;;;;;;5059882;28;20197;-81
2022/12/22 10:41:47;;;;;;;0.10;0.10;;;11.70;99.90;;;;;;5061360;28;20256;-80
2022/12/22 10:44:15;;;;;;;0.10;0.10;;;11.70;99.90;;;;;;5076324;28;20196;-80
2022/12/22 10:46:53;;;;;;;0.10;0.10;;;11.80;99.90;;;;;;5077578;28;20498;-80
2022/12/22 10:49:32;;;;;;;0.10;0.10;;;11.90;99.90;;;;;;5058864;28;20201;-80
2022/12/22 10:52:21;;;;;;;0.10;0.10;;;11.80;99.90;;;;;;5059588;28;20187;-80
2022/12/22 10:54:47;;;;;;;0.10;0.10;;;11.70;99.90;;;;;;5077055;28;20555;-80
2022/12/22 10:57:13;;;;;;;0.10;0.10;;;11.60;99.90;;;;;;5075498;28;20197;-79
2022/12/22 10:59:49;;;;;;;0.10;0.10;;;11.60;99.90;;;;;;5059622;28;20261;-80
2022/12/22 11:02:23;;;;;;;0.10;0.10;;;11.70;99.90;;;;;;5060276;28;20169;-80
2022/12/22 11:04:50;;;;;;;0.10;0.10;;;11.70;99.90;;;;;;5073963;28;20208;-80
2022/12/22 11:07:16;;;;;;;0.10;0.10;;;11.80;99.90;;;;;;5059053;28;20209;-80
2022/12/22 11:09:42;;;;;;;0.10;0.10;;;11.90;99.90;;;;;;5076088;28;21048;-79
2022/12/22 11:12:20;;;;;;;0.10;0.10;;;11.90;99.90;;;;;;5076234;28;20181;-80
2022/12/22 11:14:57;;;;;;;0.10;0.10;;;11.90;99.90;;;;;;5075545;28;20548;-80
2022/12/22 11:18:04;;;;;;;0.10;0.10;;;12.00;99.90;;;;;;5073041;28;20631;-80
2022/12/22 11:21:15;;;;;;;0.10;0.10;;;12.00;99.90;;;;;;5057977;28;20211;-80
2022/12/22 11:24:00;;;;;;;0.10;0.10;;;12.00;99.90;;;;;;5041617;28;20244;-80
2022/12/22 11:26:54;;;;;;;0.10;0.10;;;12.10;99.90;;;;;;5058572;28;20205;-80
2022/12/22 11:29:51;;;;;;;0.10;0.10;;;12.00;99.90;;;;;;5058691;28;20258;-80
2022/12/22 11:32:41;;;;;;;0.10;0.10;;;12.10;99.90;;;;;;5074220;28;20228;-80
2022/12/22 11:35:27;;;;;;;0.10;0.10;;;12.00;99.90;;;;;;5076169;28;20263;-80
2022/12/22 11:37:59;;;;;;;0.10;0.10;;;12.10;99.90;;;;;;5073893;28;20725;-80
2022/12/22 11:40:31;;;;;;;0.10;0.10;;;12.10;99.90;;;;;;5058516;28;20210;-80
2022/12/22 11:43:22;;;;;;;0.10;0.10;;;12.10;99.90;;;;;;5060273;28;20177;-80
2022/12/22 11:45:58;;;;;;;0.10;0.10;;;12.10;99.90;;;;;;5074982;28;20713;-80
2022/12/22 11:48:54;;;;;;;0.10;0.10;;;12.00;99.90;;;;;;5058508;28;20725;-80
2022/12/22 11:51:54;;;;;;;0.10;0.10;;;11.90;99.90;;;;;;5073296;28;20188;-80
2022/12/22 11:55:00;;;;;;;0.10;0.10;;;11.90;99.90;;;;;;5060015;28;20272;-80
2022/12/22 11:57:57;;;;;;;0.10;0.10;;;11.80;99.90;;;;;;5072949;28;20259;-80
2022/12/22 12:00:22;;;;;;;0.10;0.10;;;11.80;99.90;;;;;;5056378;28;20205;-80
2022/12/22 12:03:29;;;;;;;0.10;0.10;;;11.90;99.90;;;;;;5060090;28;20248;-80
2022/12/22 12:06:22;;;;;;;0.10;0.10;;;11.80;99.90;;;;;;5074282;28;20181;-80
2022/12/22 12:09:03;;;;;;;0.10;0.10;;;11.70;99.90;;;;;;5059895;28;20264;-80
2022/12/22 12:11:40;;;;;;;0.10;0.10;;;11.70;99.90;;;;;;5057445;28;20182;-80
2022/12/22 12:14:33;;;;;;;0.10;0.10;;;11.70;99.90;;;;;;5058254;28;20174;-80
2022/12/22 12:17:07;;;;;;;0.10;0.10;;;11.70;99.90;;;;;;5054840;28;20250;-80
2022/12/22 12:19:54;;;;;;;0.10;0.10;;;11.80;99.90;;;;;;5056293;28;20192;-80
2022/12/22 12:22:38;;;;;;;0.10;0.10;;;11.70;99.90;;;;;;5058758;28;20181;-80
2022/12/22 12:25:29;;;;;;;0.10;0.10;;;11.70;99.90;;;;;;5076715;28;20227;-80
2022/12/22 12:28:08;;;;;;;0.10;0.10;;;11.60;99.90;;;;;;5058864;28;20682;-80
2022/12/22 12:30:54;;;;;;;0.10;0.10;;;11.50;99.90;;;;;;5057479;28;20212;-80
2022/12/22 12:33:37;;;;;;;0.10;0.10;;;11.50;99.90;;;;;;5058688;28;20262;-80
2022/12/22 12:36:12;;;;;;;0.10;0.10;;;11.50;99.90;;;;;;5059454;28;20204;-80
2022/12/22 12:38:44;;;;;;;0.10;0.10;;;11.60;99.90;;;;;;5074844;28;20244;-80
2022/12/22 12:41:12;;;;;;;0.10;0.10;;;11.60;99.90;;;;;;5072564;28;20198;-80
2022/12/22 12:43:39;;;;;;;0.10;0.10;;;11.60;99.90;;;;;;5059174;28;20672;-80
2022/12/22 12:46:39;;;;;;;0.10;0.10;;;11.70;99.90;;;;;;5058846;28;20667;-80
2022/12/22 12:49:24;;;;;;;0.10;0.10;;;11.70;99.90;;;;;;5059117;28;20279;-80
2022/12/22 12:51:50;;;;;;;0.10;0.10;;;11.60;99.90;;;;;;5073742;28;20193;-80
2022/12/22 12:54:33;;;;;;;0.10;0.10;;;11.60;99.90;;;;;;5056240;28;20192;-79
2022/12/22 12:57:09;;;;;;;0.10;0.10;;;11.60;99.90;;;;;;5059871;28;20268;-80
2022/12/22 12:59:40;;;;;;;0.10;0.10;;;11.60;99.90;;;;;;5073701;28;20208;-80
2022/12/22 13:02:35;;;;;;;0.10;0.10;;;11.60;99.90;;;;;;5072504;28;20240;-80
2022/12/22 13:05:13;;;;;;;0.10;0.10;;;11.70;99.90;;;;;;5059038;28;20211;-80
2022/12/22 13:08:06;;;;;;;0.10;0.10;;;11.70;99.90;;;;;;5057698;28;20204;-80
2022/12/22 13:10:45;;;;;;;0.00;0.00;;;11.70;99.90;;;;;;5074159;28;20274;-80
2022/12/22 13:13:20;;;;;;;0.10;0.10;;;11.70;99.90;;;;;;5056386;28;20256;-80
2022/12/22 13:16:07;;;;;;;0.10;0.10;;;11.70;99.90;;;;;;5069123;28;20180;-80
2022/12/22 13:18:33;;;;;;;0.10;0.10;;;11.70;99.90;;;;;;5065231;28;20198;-80
2022/12/22 13:20:58;;;;;;;0.10;0.10;;;11.70;99.90;;;;;;5069161;28;20212;-80
2022/12/22 13:23:34;;;;;;;0.10;0.10;;;11.70;99.90;;;;;;5070795;28;20189;-81
2022/12/22 13:26:08;;;;;;;0.10;0.10;;;11.70;99.90;;;;;;5071723;28;20587;-80
2022/12/22 13:28:38;;;;;;;0.10;0.10;;;11.70;99.90;;;;;;5055992;28;20196;-80
2022/12/22 13:31:13;;;;;;;0.10;0.10;;;11.80;99.90;;;;;;5055398;28;20204;-81
2022/12/22 13:33:41;;;;;;;0.10;0.10;;;11.90;99.90;;;;;;5070914;28;20173;-81
2022/12/22 13:36:19;;;;;;;0.10;0.10;;;11.90;99.90;;;;;;5053060;28;20178;-81
2022/12/22 13:38:44;;;;;;;0.10;0.10;;;11.80;99.90;;;;;;5056854;28;20185;-83
2022/12/22 13:41:20;;;;;;;0.10;0.10;;;11.80;99.90;;;;;;5072604;28;20247;-83
2022/12/22 13:43:57;;;;;;;0.10;0.10;;;11.70;99.90;;;;;;5074144;28;20560;-83
2022/12/22 13:46:23;;;;;;;0.10;0.10;;;11.60;99.90;;;;;;5072725;28;20191;-82
2022/12/22 13:48:50;;;;;;;0.10;0.10;;;11.50;99.90;;;;;;5076552;28;20232;-83
2022/12/22 13:51:31;;;;;;;0.10;0.10;;;11.50;99.90;;;;;;5074285;28;20191;-83
2022/12/22 13:54:02;;;;;;;0.10;0.10;;;11.40;99.90;;;;;;5057549;28;20264;-83
2022/12/22 13:56:42;;;;;;;0.10;0.10;;;11.40;99.90;;;;;;5063616;28;20169;-83
2022/12/22 13:59:26;;;;;;;0.03;0.03;;;11.40;99.90;;;;;;5071281;28;20294;-82
2022/12/22 14:01:57;;;;;;;0.03;0.03;;;11.40;99.90;;;;;;5061704;28;20184;-83
2022/12/22 14:04:23;;;;;;;0.10;0.10;;;11.40;99.90;;;;;;5073326;28;20180;-83
2022/12/22 14:06:48;;;;;;;0.10;0.10;;;11.40;99.90;;;;;;5062337;28;20245;-83
2022/12/22 14:09:23;;;;;;;0.10;0.10;;;11.40;99.90;;;;;;5077861;28;20231;-82
2022/12/22 14:11:48;;;;;;;0.10;0.10;;;11.40;99.90;;;;;;5080243;28;20188;-82
2022/12/22 14:14:18;;;;;;;0.10;0.10;;;11.50;99.90;;;;;;5074453;28;20189;-83
2022/12/22 14:16:46;;;;;;;0.10;0.10;;;11.50;99.90;;;;;;5062959;28;20203;-83
2022/12/22 14:19:14;;;;;;;0.10;0.10;;;11.50;99.90;;;;;;5061401;28;20207;-83
2022/12/22 14:21:42;;;;;;;0.10;0.10;;;11.40;99.90;;;;;;5079083;28;20197;-83
2022/12/22 14:24:20;;;;;;;0.00;0.00;;;11.40;99.90;;;;;;5066464;28;20184;-83
2022/12/22 14:26:46;;;;;;;0.10;0.10;;;11.30;99.90;;;;;;5078458;28;20217;-83
2022/12/22 14:29:16;;;;;;;0.10;0.10;;;11.30;99.90;;;;;;5064301;28;20262;-83
2022/12/22 14:32:02;;;;;;;0.10;0.10;;;11.20;99.90;;;;;;5064794;28;20186;-83
2022/12/22 14:34:30;;;;;;;0.10;0.10;;;11.20;99.90;;;;;;5060613;28;20555;-82
2022/12/22 14:36:56;;;;;;;0.10;0.10;;;11.20;99.90;;;;;;5078540;28;20208;-82
2022/12/22 14:39:25;;;;;;;0.10;0.10;;;11.10;99.90;;;;;;5077863;28;20224;-83
2022/12/22 14:41:53;;;;;;;0.10;0.10;;;11.10;99.90;;;;;;5063381;28;20217;-83
2022/12/22 14:44:29;;;;;;;0.10;0.10;;;11.10;99.90;;;;;;5078331;28;20181;-83
2022/12/22 14:47:16;;;;;;;0.10;0.10;;;11.10;99.90;;;;;;5062600;28;20195;-82
2022/12/22 14:49:58;;;;;;;0.10;0.10;;;11.00;99.90;;;;;;5079279;28;20699;-82
2022/12/22 14:52:31;;;;;;;0.10;0.10;;;11.00;99.90;;;;;;5056895;28;20193;-83
2022/12/22 14:54:58;;;;;;;0.10;0.10;;;11.00;99.90;;;;;;5066808;28;20185;-83
2022/12/22 14:57:31;;;;;;;0.10;0.10;;;10.90;99.90;;;;;;5062576;28;20201;-82
2022/12/22 15:00:21;;;;;;;0.00;0.00;;;10.90;99.90;;;;;;5074872;28;20223;-83
2022/12/22 15:02:53;;;;;;;0.10;0.10;;;10.80;99.90;;;;;;5061551;28;20235;-82
2022/12/22 15:05:36;;;;;;;0.10;0.10;;;10.80;99.90;;;;;;5061081;28;20268;-83
2022/12/22 15:08:04;;;;;;;0.10;0.10;;;10.80;99.90;;;;;;5071821;28;20216;-81
2022/12/22 15:10:41;;;;;;;0.10;0.10;;;10.80;99.90;;;;;;5059894;28;20217;-82
2022/12/22 15:13:21;;;;;;;0.00;0.00;;;10.70;99.90;;;;;;5055796;28;20229;-82
2022/12/22 15:15:49;;;;;;;0.10;0.10;;;10.80;99.90;;;;;;5076546;28;20184;-81
2022/12/22 15:18:15;;;;;;;0.03;0.03;;;10.80;99.90;;;;;;5072852;28;20197;-81
2022/12/22 15:20:40;;;;;;;0.10;0.10;;;10.80;99.90;;;;;;5059674;28;20213;-82
2022/12/22 15:23:13;;;;;;;0.10;0.10;;;10.70;99.90;;;;;;5071366;28;20693;-81
2022/12/22 15:25:38;;;;;;;0.10;0.10;;;10.80;99.90;;;;;;5057913;28;20189;-81
2022/12/22 15:28:04;;;;;;;0.10;0.10;;;10.80;99.90;;;;;;5073855;28;20320;-81
2022/12/22 15:30:29;;;;;;;0.10;0.10;;;10.80;99.90;;;;;;5071489;28;20212;-82
2022/12/22 15:32:56;;;;;;;0.10;0.10;;;10.80;99.90;;;;;;5073888;28;20181;-82
2022/12/22 15:35:31;;;;;;;0.10;0.10;;;10.80;99.90;;;;;;5071410;28;20662;-80
2022/12/22 15:37:57;;;;;;;0.10;0.10;;;10.80;99.90;;;;;;5057498;28;20266;-81
2022/12/22 15:40:24;;;;;;;0.10;0.10;;;10.70;99.90;;;;;;5057238;28;20274;-80
2022/12/22 15:42:50;;;;;;;0.00;0.00;;;10.80;99.90;;;;;;5072989;28;20253;-81
2022/12/22 15:45:17;;;;;;;0.10;0.10;;;10.70;99.90;;;;;;5072773;28;20192;-80
2022/12/22 15:47:47;;;;;;;0.10;0.10;;;10.70;99.90;;;;;;5057979;28;20229;-82
2022/12/22 15:50:24;;;;;;;0.10;0.10;;;10.80;99.90;;;;;;5057528;28;20205;-82
2022/12/22 15:52:56;;;;;;;0.10;0.10;;;10.70;99.90;;;;;;5057405;28;20597;-81
2022/12/22 15:55:23;;;;;;;0.10;0.10;;;10.80;99.90;;;;;;5055766;28;20181;-81
2022/12/22 15:57:50;;;;;;;0.10;0.10;;;10.70;99.90;;;;;;5018623;28;1053527;-80
2022/12/22 16:00:17;;;;;;;0.10;0.10;;;10.70;99.90;;;;;;5058628;28;20246;-82
2022/12/22 16:02:43;;;;;;;0.00;0.00;;;10.70;99.90;;;;;;5057110;28;20268;-82
2022/12/22 16:05:09;;;;;;;0.10;0.10;;;10.60;99.90;;;;;;5071075;28;20623;-81
2022/12/22 16:07:35;;;;;;;0.10;0.10;;;10.60;99.90;;;;;;5055801;28;20212;-82
2022/12/22 16:10:03;;;;;;;0.10;0.10;;;10.50;99.90;;;;;;5057465;28;20209;-82
2022/12/22 16:12:29;;;;;;;0.10;0.10;;;10.60;99.90;;;;;;5055854;28;20210;-81
2022/12/22 16:14:58;;;;;;;0.00;0.00;;;10.60;99.90;;;;;;5058046;28;20181;-82
2022/12/22 16:17:26;;;;;;;0.03;0.03;;;10.60;99.90;;;;;;5055448;28;20241;-82
2022/12/22 16:19:51;;;;;;;0.00;0.00;;;10.50;99.90;;;;;;5070920;28;20243;-82
2022/12/22 16:22:28;;;;;;;0.10;0.10;;;10.50;99.90;;;;;;5053482;28;20190;-81
2022/12/22 16:24:54;;;;;;;0.10;0.10;;;10.50;99.90;;;;;;5051150;28;20194;-81
2022/12/22 16:27:20;;;;;;;0.10;0.10;;;10.50;99.90;;;;;;5067983;28;20221;-82
2022/12/22 16:29:50;;;;;;;0.10;0.10;;;10.60;99.90;;;;;;5053191;28;20227;-81
2022/12/22 16:32:20;;;;;;;0.10;0.10;;;10.50;99.90;;;;;;5054556;28;20180;-81
2022/12/22 16:34:46;;;;;;;0.10;0.10;;;10.60;99.90;;;;;;5056578;28;20176;-80
2022/12/22 16:37:11;;;;;;;0.10;0.10;;;10.60;99.90;;;;;;5052772;28;20492;-81
2022/12/22 16:39:37;;;;;;;0.10;0.10;;;10.60;99.90;;;;;;5058607;28;20200;-81
2022/12/22 16:42:03;;;;;;;0.10;0.10;;;10.60;99.90;;;;;;5071595;28;20207;-81